createdAt,value
2023-08-09T00:02:46.219Z,15.73
2023-08-09T00:05:48.562Z,15.63
2023-08-09T00:08:50.505Z,15.60
2023-08-09T00:11:52.594Z,15.51
2023-08-09T00:14:54.738Z,15.50
2023-08-09T00:17:56.736Z,15.49
2023-08-09T00:20:59.005Z,15.65
2023-08-09T00:24:01.384Z,15.63
2023-08-09T00:27:04.126Z,15.66
2023-08-09T00:30:09.796Z,15.72
2023-08-09T00:33:13.088Z,15.67
2023-08-09T00:36:17.369Z,15.56
2023-08-09T00:39:21.178Z,15.49
2023-08-09T00:42:24.533Z,15.48
2023-08-09T00:45:26.836Z,15.43
2023-08-09T00:48:28.695Z,15.40
2023-08-09T00:51:31.128Z,15.36
2023-08-09T00:54:34.020Z,15.27
2023-08-09T00:57:36.279Z,15.23
2023-08-09T01:00:38.411Z,15.20
2023-08-09T01:03:40.796Z,15.20
2023-08-09T01:06:47.937Z,15.26
2023-08-09T01:10:04.219Z,15.23
2023-08-09T01:13:07.972Z,15.26
2023-08-09T01:16:12.459Z,15.09
2023-08-09T01:19:40.883Z,15.06
2023-08-09T01:22:50.406Z,15.03
2023-08-09T01:25:52.669Z,14.92
2023-08-09T01:28:57.266Z,14.90
2023-08-09T01:31:59.496Z,14.95
2023-08-09T01:35:02.296Z,14.90
2023-08-09T01:38:12.121Z,14.80
2023-08-09T01:41:15.263Z,14.76
2023-08-09T01:44:18.346Z,14.76
2023-08-09T01:47:21.315Z,14.79
2023-08-09T01:50:26.033Z,14.79
2023-08-09T01:53:28.920Z,14.66
2023-08-09T01:56:31.588Z,14.58
2023-08-09T01:59:33.943Z,14.62
2023-08-09T02:02:36.688Z,14.62
2023-08-09T02:05:39.887Z,14.54
2023-08-09T02:08:44.697Z,14.50
2023-08-09T02:11:48.668Z,14.45
2023-08-09T02:14:52.188Z,14.51
2023-08-09T02:17:54.449Z,14.47
2023-08-09T02:20:57.193Z,14.41
2023-08-09T02:23:59.468Z,14.58
2023-08-09T02:27:01.664Z,14.59
2023-08-09T02:30:04.983Z,14.59
2023-08-09T02:33:09.791Z,14.47
2023-08-09T02:36:13.083Z,14.51
2023-08-09T02:39:17.473Z,14.58
2023-08-09T02:42:23.041Z,14.55
2023-08-09T02:45:25.051Z,14.54
2023-08-09T02:48:27.324Z,14.47
2023-08-09T02:51:29.890Z,14.42
2023-08-09T02:54:33.082Z,14.37
2023-08-09T02:57:35.189Z,14.36
2023-08-09T03:00:38.227Z,14.30
2023-08-09T03:03:40.305Z,14.34
2023-08-09T03:06:42.433Z,14.19
2023-08-09T03:09:44.633Z,14.20
2023-08-09T03:12:46.795Z,14.28
2023-08-09T03:15:49.005Z,14.21
2023-08-09T03:18:51.366Z,14.27
2023-08-09T03:21:54.037Z,14.25
2023-08-09T03:24:56.156Z,14.26
2023-08-09T03:27:58.512Z,14.17
2023-08-09T03:31:03.848Z,14.12
2023-08-09T03:34:06.469Z,14.03
2023-08-09T03:37:08.877Z,14.05
2023-08-09T03:40:13.792Z,13.94
2023-08-09T03:43:17.620Z,13.97
2023-08-09T03:46:19.880Z,13.94
2023-08-09T03:49:22.472Z,13.82
2023-08-09T03:52:24.928Z,13.90
2023-08-09T03:55:27.127Z,13.85
2023-08-09T03:58:29.305Z,13.86
2023-08-09T04:01:32.546Z,13.71
2023-08-09T04:04:36.127Z,13.94
2023-08-09T04:07:38.448Z,13.98
2023-08-09T04:10:40.764Z,14.04
2023-08-09T04:13:42.849Z,14.21
2023-08-09T04:16:45.240Z,14.24
2023-08-09T04:19:47.373Z,14.26
2023-08-09T04:22:49.375Z,14.38
2023-08-09T04:25:51.569Z,14.44
2023-08-09T04:28:56.282Z,14.39
2023-08-09T04:31:58.615Z,14.48
2023-08-09T04:35:00.706Z,14.54
2023-08-09T04:38:06.018Z,14.49
2023-08-09T04:41:08.193Z,14.48
2023-08-09T04:44:10.552Z,14.52
2023-08-09T04:47:13.483Z,14.48
2023-08-09T04:50:15.926Z,14.52
2023-08-09T04:53:17.851Z,14.44
2023-08-09T04:56:20.237Z,14.52
2023-08-09T04:59:22.456Z,14.48
2023-08-09T05:02:25.232Z,14.57
2023-08-09T05:05:29.721Z,14.63
2023-08-09T05:08:33.209Z,14.73
2023-08-09T05:11:35.460Z,14.82
2023-08-09T05:14:37.928Z,14.79
2023-08-09T05:17:40.172Z,14.78
2023-08-09T05:20:43.185Z,14.83
2023-08-09T05:23:45.504Z,14.98
2023-08-09T05:26:48.792Z,15.15
2023-08-09T05:29:50.938Z,15.24
2023-08-09T05:32:53.768Z,15.39
2023-08-09T05:35:57.018Z,15.38
2023-08-09T05:39:01.841Z,15.41
2023-08-09T05:42:08.292Z,15.51
2023-08-09T05:45:10.725Z,15.44
2023-08-09T05:48:13.602Z,15.53
2023-08-09T05:51:16.042Z,15.48
2023-08-09T05:54:19.733Z,15.65
2023-08-09T05:57:22.738Z,15.63
2023-08-09T06:00:25.859Z,15.64
2023-08-09T06:03:28.744Z,15.76
2023-08-09T06:06:31.104Z,15.86
2023-08-09T06:09:33.482Z,15.95
2023-08-09T06:12:35.964Z,16.13
2023-08-09T06:15:38.310Z,16.31
2023-08-09T06:18:40.337Z,16.42
2023-08-09T06:21:46.099Z,16.55
2023-08-09T06:24:48.216Z,16.78
2023-08-09T06:27:51.741Z,16.91
2023-08-09T06:30:54.112Z,18.81
2023-08-09T06:33:56.423Z,20.51
2023-08-09T06:36:58.608Z,20.98
2023-08-09T06:40:00.727Z,21.93
2023-08-09T06:43:02.712Z,22.33
2023-08-09T06:46:05.291Z,22.09
2023-08-09T06:49:08.561Z,20.68
2023-08-09T06:52:11.709Z,20.12
2023-08-09T06:55:14.825Z,19.26
2023-08-09T06:58:17.262Z,19.05
2023-08-09T07:01:19.665Z,19.00
2023-08-09T07:04:21.811Z,18.86
2023-08-09T07:07:24.218Z,19.13
2023-08-09T07:10:26.773Z,18.98
2023-08-09T07:13:31.474Z,18.98
2023-08-09T07:16:35.206Z,19.28
2023-08-09T07:19:37.456Z,20.12
2023-08-09T07:22:40.511Z,21.21
2023-08-09T07:25:42.559Z,21.75
2023-08-09T07:28:44.920Z,22.05
2023-08-09T07:31:47.237Z,24.07
2023-08-09T07:34:50.627Z,24.53
2023-08-09T07:37:53.754Z,25.09
2023-08-09T07:40:55.789Z,23.86
2023-08-09T07:43:58.105Z,24.62
2023-08-09T07:47:00.397Z,23.97
2023-08-09T07:50:02.680Z,24.19
2023-08-09T07:53:05.324Z,24.24
2023-08-09T07:56:07.612Z,24.87
2023-08-09T07:59:09.664Z,23.74
2023-08-09T08:02:11.839Z,22.68
2023-08-09T08:05:15.056Z,22.10
2023-08-09T08:08:18.900Z,21.64
2023-08-09T08:11:22.562Z,21.65
2023-08-09T08:14:24.902Z,21.49
2023-08-09T08:17:28.037Z,21.19
2023-08-09T08:20:30.484Z,21.33
2023-08-09T08:23:33.735Z,21.45
2023-08-09T08:26:36.538Z,21.28
2023-08-09T08:29:40.008Z,21.42
2023-08-09T08:32:42.717Z,21.47
2023-08-09T08:35:45.964Z,21.55
2023-08-09T08:38:48.216Z,21.51
2023-08-09T08:41:50.926Z,21.56
2023-08-09T08:44:53.541Z,21.49
2023-08-09T08:47:55.695Z,21.55
2023-08-09T08:50:58.467Z,21.67
2023-08-09T08:54:00.906Z,21.76
2023-08-09T08:57:06.333Z,21.85
2023-08-09T09:03:24.402Z,22.14
2023-08-09T09:06:26.738Z,22.13
2023-08-09T09:09:29.186Z,21.97
2023-08-09T09:12:31.554Z,21.93
2023-08-09T09:15:37.686Z,21.97
2023-08-09T09:18:44.458Z,21.98
2023-08-09T09:21:48.017Z,21.92
2023-08-09T09:24:50.310Z,21.80
2023-08-09T09:27:57.847Z,21.96
2023-08-09T09:31:00.185Z,21.98
2023-08-09T09:34:04.536Z,22.02
2023-08-09T09:37:07.007Z,22.12
2023-08-09T09:40:12.036Z,22.12
2023-08-09T09:43:15.059Z,22.18
2023-08-09T09:46:36.672Z,22.42
2023-08-09T09:49:52.153Z,22.50
2023-08-09T09:52:55.641Z,22.49
2023-08-09T09:55:59.702Z,22.34
2023-08-09T09:59:05.962Z,22.50
2023-08-09T10:02:12.811Z,22.45
2023-08-09T10:05:30.445Z,22.55
2023-08-09T10:08:34.238Z,22.69
2023-08-09T10:11:37.494Z,22.84
2023-08-09T10:14:40.034Z,22.79
2023-08-09T10:17:43.595Z,23.00
2023-08-09T10:20:52.179Z,23.03
2023-08-09T10:24:08.038Z,22.98
2023-08-09T10:27:13.004Z,22.84
2023-08-09T10:30:17.735Z,22.81
2023-08-09T10:33:21.719Z,22.82
2023-08-09T10:36:34.921Z,22.84
2023-08-09T10:39:37.793Z,22.98
2023-08-09T10:42:40.345Z,22.88
2023-08-09T10:45:42.448Z,22.77
2023-08-09T10:48:52.433Z,22.87
2023-08-09T10:51:56.376Z,23.06
2023-08-09T10:55:20.421Z,23.03
2023-08-09T10:58:32.148Z,22.97
2023-08-09T11:01:38.732Z,22.92
2023-08-09T11:04:41.653Z,22.91
2023-08-09T11:07:47.006Z,23.03
2023-08-09T11:10:49.680Z,23.14
2023-08-09T11:13:56.134Z,23.24
2023-08-09T11:17:02.397Z,23.39
2023-08-09T11:20:14.910Z,23.42
2023-08-09T11:23:17.096Z,23.52
2023-08-09T11:26:19.234Z,23.52
2023-08-09T11:29:25.988Z,23.49
2023-08-09T11:32:32.974Z,23.36
2023-08-09T11:35:45.741Z,23.31
2023-08-09T11:38:47.863Z,23.23
2023-08-09T11:41:54.788Z,23.26
2023-08-09T11:44:57.174Z,23.34
2023-08-09T11:47:59.546Z,23.32
2023-08-09T11:51:07.123Z,23.39
2023-08-09T11:54:10.305Z,23.40
2023-08-09T11:57:12.557Z,23.45
2023-08-09T12:00:17.549Z,23.35
2023-08-09T12:03:23.420Z,23.32
2023-08-09T12:06:36.517Z,23.34
2023-08-09T12:09:38.422Z,23.28
2023-08-09T12:12:42.927Z,23.22
2023-08-09T12:15:45.025Z,23.25
2023-08-09T12:18:50.306Z,23.18
2023-08-09T12:21:55.239Z,23.19
2023-08-09T12:24:58.610Z,23.17
2023-08-09T12:28:05.276Z,23.22
2023-08-09T12:31:07.926Z,23.37
2023-08-09T12:34:11.879Z,23.38
2023-08-09T12:37:14.036Z,23.28
2023-08-09T12:40:16.713Z,23.53
2023-08-09T12:43:18.830Z,23.32
2023-08-09T12:46:20.993Z,23.45
2023-08-09T12:49:23.443Z,23.58
2023-08-09T12:52:25.402Z,23.68
2023-08-09T12:55:28.262Z,23.49
2023-08-09T12:58:31.527Z,23.69
2023-08-09T13:01:34.811Z,23.63
2023-08-09T13:04:38.040Z,23.71
2023-08-09T13:07:41.157Z,23.60
2023-08-09T13:10:43.368Z,23.76
2023-08-09T13:13:45.688Z,23.94
2023-08-09T13:16:50.921Z,23.88
2023-08-09T13:19:55.529Z,23.74
2023-08-09T13:22:57.776Z,23.70
2023-08-09T13:26:00.635Z,23.76
2023-08-09T13:29:02.999Z,23.95
2023-08-09T13:32:07.016Z,24.08
2023-08-09T13:35:10.425Z,23.70
2023-08-09T13:38:27.105Z,23.68
2023-08-09T13:41:29.161Z,23.71
2023-08-09T13:44:31.315Z,23.74
2023-08-09T13:47:33.809Z,23.80
2023-08-09T13:50:38.080Z,23.75
2023-08-09T13:53:39.983Z,23.83
2023-08-09T13:56:42.316Z,23.72
2023-08-09T13:59:46.483Z,23.66
2023-08-09T14:02:48.666Z,23.67
2023-08-09T14:05:53.031Z,23.75
2023-08-09T14:08:55.395Z,23.60
2023-08-09T14:11:57.678Z,23.53
2023-08-09T14:14:59.971Z,23.54
2023-08-09T14:18:02.011Z,23.64
2023-08-09T14:21:04.011Z,23.43
2023-08-09T14:24:07.269Z,23.53
2023-08-09T14:27:09.241Z,23.63
2023-08-09T14:30:11.604Z,23.56
2023-08-09T14:33:16.340Z,23.79
2023-08-09T14:36:18.444Z,23.80
2023-08-09T14:39:22.120Z,23.92
2023-08-09T14:42:24.379Z,24.00
2023-08-09T14:45:26.901Z,24.03
2023-08-09T14:48:29.755Z,24.04
2023-08-09T14:51:32.266Z,23.90
2023-08-09T14:54:38.866Z,23.93
2023-08-09T14:57:42.435Z,23.82
2023-08-09T15:00:47.502Z,23.93
2023-08-09T15:03:52.271Z,23.93
2023-08-09T15:06:55.237Z,24.13
2023-08-09T15:09:58.027Z,24.16
2023-08-09T15:13:00.644Z,24.12
2023-08-09T15:16:03.715Z,23.99
2023-08-09T15:19:05.703Z,24.12
2023-08-09T15:22:08.457Z,24.18
2023-08-09T15:25:20.106Z,24.14
2023-08-09T15:28:24.663Z,24.14
2023-08-09T15:31:27.149Z,24.11
2023-08-09T15:34:31.740Z,24.13
2023-08-09T15:37:35.906Z,23.74
2023-08-09T15:40:38.238Z,23.64
2023-08-09T15:43:46.042Z,23.51
2023-08-09T15:46:48.462Z,23.31
2023-08-09T15:49:52.257Z,23.33
2023-08-09T15:52:55.500Z,23.22
2023-08-09T15:55:58.781Z,23.15
2023-08-09T15:59:06.073Z,22.98
2023-08-09T16:02:09.052Z,22.86
2023-08-09T16:05:14.422Z,22.89
2023-08-09T16:08:19.184Z,22.72
2023-08-09T16:11:22.349Z,22.79
2023-08-09T16:14:24.791Z,22.63
2023-08-09T16:17:28.153Z,22.67
2023-08-09T16:20:35.274Z,22.65
2023-08-09T16:23:37.722Z,22.68
2023-08-09T16:26:42.508Z,22.58
2023-08-09T16:29:44.859Z,22.54
2023-08-09T16:32:47.347Z,22.53
2023-08-09T16:35:49.626Z,22.51
2023-08-09T16:38:51.697Z,22.46
2023-08-09T16:41:55.310Z,22.41
2023-08-09T16:44:57.554Z,22.32
2023-08-09T16:47:59.608Z,22.27
2023-08-09T16:51:01.767Z,22.26
2023-08-09T16:54:07.127Z,22.25
2023-08-09T16:57:09.214Z,22.20
2023-08-09T17:00:16.072Z,22.15
2023-08-09T17:03:20.518Z,22.09
2023-08-09T17:06:23.693Z,22.09
2023-08-09T17:09:28.089Z,22.08
2023-08-09T17:12:30.310Z,22.07
2023-08-09T17:15:33.723Z,22.05
2023-08-09T17:18:36.904Z,21.91
2023-08-09T17:21:40.601Z,21.59
2023-08-09T17:24:44.897Z,21.59
2023-08-09T17:27:47.536Z,21.25
2023-08-09T17:30:49.631Z,21.21
2023-08-09T17:33:52.408Z,21.07
2023-08-09T17:36:56.649Z,20.88
2023-08-09T17:39:58.633Z,20.96
2023-08-09T17:43:00.685Z,20.53
2023-08-09T17:46:02.766Z,20.54
2023-08-09T17:49:07.067Z,20.72
2023-08-09T17:52:09.095Z,20.89
2023-08-09T17:55:12.394Z,20.87
2023-08-09T17:58:15.412Z,20.86
2023-08-09T18:01:17.662Z,20.83
2023-08-09T18:04:21.380Z,20.77
2023-08-09T18:07:23.506Z,20.77
2023-08-09T18:10:25.553Z,20.87
2023-08-09T18:13:30.073Z,20.56
2023-08-09T18:16:33.408Z,20.31
2023-08-09T18:19:35.375Z,20.40
2023-08-09T18:22:37.385Z,20.43
2023-08-09T18:25:40.425Z,20.51
2023-08-09T18:28:46.200Z,20.38
2023-08-09T18:31:48.126Z,20.27
2023-08-09T18:34:50.964Z,20.24
2023-08-09T18:37:54.332Z,20.05
2023-08-09T18:40:57.633Z,19.93
2023-08-09T18:44:00.446Z,19.99
2023-08-09T18:47:03.812Z,19.90
2023-08-09T18:50:07.751Z,19.96
2023-08-09T18:53:13.829Z,19.90
2023-08-09T18:56:18.546Z,19.91
2023-08-09T18:59:21.053Z,19.86
2023-08-09T19:02:23.263Z,19.86
2023-08-09T19:05:26.609Z,19.87
2023-08-09T19:08:29.872Z,19.78
2023-08-09T19:11:32.528Z,19.86
2023-08-09T19:14:34.852Z,19.82
2023-08-09T19:17:40.582Z,19.85
2023-08-09T19:20:48.200Z,19.91
2023-08-09T19:23:52.166Z,19.79
2023-08-09T19:26:57.116Z,19.74
2023-08-09T19:30:00.780Z,19.73
2023-08-09T19:33:03.271Z,19.72
2023-08-09T19:36:08.463Z,19.73
2023-08-09T19:39:11.447Z,19.75
2023-08-09T19:42:13.544Z,19.78
2023-08-09T19:45:16.595Z,19.78
2023-08-09T19:48:18.677Z,19.70
2023-08-09T19:51:23.577Z,19.78
2023-08-09T19:54:25.659Z,19.58
2023-08-09T19:57:28.164Z,19.60
2023-08-09T20:00:30.425Z,19.59
2023-08-09T20:03:34.470Z,19.49
2023-08-09T20:06:37.369Z,19.58
2023-08-09T20:09:39.541Z,19.52
2023-08-09T20:12:41.844Z,19.55
2023-08-09T20:15:44.199Z,19.56
2023-08-09T20:18:46.393Z,19.38
2023-08-09T20:21:48.914Z,19.53
2023-08-09T20:24:51.061Z,19.46
2023-08-09T20:27:53.286Z,19.57
2023-08-09T20:30:56.266Z,19.59
2023-08-09T20:33:58.719Z,19.64
2023-08-09T20:37:01.316Z,19.66
2023-08-09T20:40:11.546Z,19.59
2023-08-09T20:43:13.937Z,19.65
2023-08-09T20:46:15.963Z,19.60
2023-08-09T20:49:18.251Z,19.59
2023-08-09T20:52:20.244Z,19.64
2023-08-09T20:55:22.309Z,19.61
2023-08-09T20:58:24.663Z,19.69
2023-08-09T21:01:28.371Z,19.58
2023-08-09T21:04:30.757Z,19.55
2023-08-09T21:07:32.882Z,19.55
2023-08-09T21:10:34.822Z,19.53
2023-08-09T21:13:36.666Z,19.55
2023-08-09T21:16:43.939Z,19.52
2023-08-09T21:19:48.320Z,19.49
2023-08-09T21:22:58.123Z,19.40
2023-08-09T21:26:01.817Z,19.43
2023-08-09T21:29:04.118Z,19.52
2023-08-09T21:32:06.956Z,19.45
2023-08-09T21:35:10.367Z,19.38
2023-08-09T21:38:15.888Z,19.59
2023-08-09T21:41:20.097Z,19.59
2023-08-09T21:44:22.143Z,19.49
2023-08-09T21:47:24.202Z,19.48
2023-08-09T21:50:27.322Z,19.32
2023-08-09T21:53:29.779Z,19.43
2023-08-09T21:56:31.827Z,19.47
2023-08-09T21:59:34.180Z,19.31
2023-08-09T22:02:36.298Z,19.32
2023-08-09T22:05:38.612Z,19.28
2023-08-09T22:08:41.134Z,19.22
2023-08-09T22:11:48.555Z,19.33
2023-08-09T22:15:01.748Z,19.31
2023-08-09T22:18:04.338Z,19.35
2023-08-09T22:21:06.418Z,19.23
2023-08-09T22:24:10.653Z,19.22
2023-08-09T22:27:12.785Z,19.21
2023-08-09T22:30:15.271Z,19.17
2023-08-09T22:33:17.528Z,19.17
2023-08-09T22:36:20.263Z,19.11
2023-08-09T22:39:23.808Z,19.08
2023-08-09T22:42:26.331Z,19.19
2023-08-09T22:45:31.547Z,19.13
2023-08-09T22:48:33.775Z,19.10
2023-08-09T22:51:36.143Z,19.07
2023-08-09T22:54:39.160Z,19.08
2023-08-09T22:57:41.261Z,18.85
2023-08-09T23:00:43.348Z,18.91
2023-08-09T23:03:45.818Z,18.91
2023-08-09T23:06:49.151Z,18.95
2023-08-09T23:09:50.992Z,18.89
2023-08-09T23:12:53.197Z,18.95
2023-08-09T23:15:56.426Z,18.82
2023-08-09T23:18:58.827Z,18.90
2023-08-09T23:22:01.165Z,18.95
2023-08-09T23:25:04.059Z,18.78
2023-08-09T23:28:06.372Z,18.80
2023-08-09T23:31:08.708Z,18.80
2023-08-09T23:34:13.098Z,18.79
2023-08-09T23:37:15.808Z,18.75
2023-08-09T23:40:19.123Z,18.78
2023-08-09T23:43:21.909Z,18.69
2023-08-09T23:46:23.846Z,18.70
2023-08-09T23:49:26.053Z,18.64
2023-08-09T23:52:30.559Z,18.54
2023-08-09T23:55:33.274Z,18.46
2023-08-09T23:58:36.036Z,18.39
